Time;durP1;ratioP1;P1;durP2;ratioP2;P2;SDS_P1;SDS_P2;PMS_P1;PMS_P2;Temp;Humidity;BMP_temperature;BMP_pressure;BME280_temperature;BME280_humidity;BME280_pressure;Samples;Min_cycle;Max_cycle;Signal;HPM_P1;HPM_P2
2023/06/22 00:02:06;;;;;;;10.95;9.85;;;19.40;99.90;;;;;;5020146;28;20037;-75
2023/06/22 00:04:32;;;;;;;12.27;9.93;;;19.40;99.90;;;;;;5022782;28;20049;-75
2023/06/22 00:06:58;;;;;;;12.70;10.10;;;19.40;99.90;;;;;;5038545;28;20045;-76
2023/06/22 00:09:23;;;;;;;12.63;10.27;;;19.40;99.90;;;;;;5023477;28;20045;-76
2023/06/22 00:11:49;;;;;;;13.35;10.15;;;19.40;99.90;;;;;;5019356;28;20056;-75
2023/06/22 00:14:14;;;;;;;12.98;10.27;;;19.40;99.90;;;;;;5017958;28;20046;-75
2023/06/22 00:16:42;;;;;;;12.23;10.52;;;19.40;99.90;;;;;;5026965;28;20063;-76
2023/06/22 00:19:11;;;;;;;12.43;10.52;;;19.30;99.90;;;;;;5022419;28;20041;-75
2023/06/22 00:21:38;;;;;;;12.70;10.32;;;19.20;99.90;;;;;;5019459;28;20047;-75
2023/06/22 00:24:04;;;;;;;12.82;10.70;;;19.20;99.90;;;;;;5019100;28;20081;-75
2023/06/22 00:26:29;;;;;;;11.95;10.70;;;19.10;99.90;;;;;;5039954;28;20045;-75
2023/06/22 00:28:55;;;;;;;10.52;8.75;;;19.10;99.90;;;;;;5033197;28;20053;-75
2023/06/22 00:31:20;;;;;;;8.90;7.90;;;19.10;99.90;;;;;;5023942;28;20037;-75
2023/06/22 00:33:46;;;;;;;7.47;6.60;;;19.10;99.90;;;;;;5021023;28;20496;-75
2023/06/22 00:36:16;;;;;;;8.05;7.22;;;19.00;99.90;;;;;;5019628;28;20056;-74
2023/06/22 00:38:41;;;;;;;10.35;9.25;;;19.00;99.90;;;;;;5024707;28;20053;-75
2023/06/22 00:41:07;;;;;;;11.57;8.75;;;18.90;99.90;;;;;;5014396;28;20034;-75
2023/06/22 00:43:33;;;;;;;10.05;9.05;;;18.90;99.90;;;;;;5018183;28;20042;-75
2023/06/22 00:45:58;;;;;;;9.40;8.45;;;18.80;99.90;;;;;;5022043;28;20041;-75
2023/06/22 00:48:24;;;;;;;11.35;10.10;;;18.70;99.90;;;;;;5019533;28;20175;-75
2023/06/22 00:50:53;;;;;;;10.60;9.13;;;18.50;99.90;;;;;;5015363;28;20165;-75
2023/06/22 00:53:19;;;;;;;8.23;7.18;;;18.50;99.90;;;;;;5034818;28;20033;-75
2023/06/22 00:55:51;;;;;;;9.88;8.45;;;18.40;99.90;;;;;;5020317;28;20179;-74
2023/06/22 00:58:17;;;;;;;11.20;10.00;;;18.40;99.90;;;;;;5020473;28;20138;-75
2023/06/22 01:00:42;;;;;;;13.80;10.15;;;18.40;99.90;;;;;;5017029;28;20073;-76
2023/06/22 01:03:08;;;;;;;10.48;9.27;;;18.30;99.90;;;;;;5016681;28;20034;-75
2023/06/22 01:05:35;;;;;;;9.55;8.55;;;18.30;99.90;;;;;;5017448;28;20250;-75
2023/06/22 01:08:12;;;;;;;11.98;8.63;;;18.40;99.90;;;;;;5028406;28;20044;-75
2023/06/22 01:10:51;;;;;;;11.57;9.85;;;18.40;99.90;;;;;;5017384;28;20045;-75
2023/06/22 01:13:29;;;;;;;10.45;8.98;;;18.30;99.90;;;;;;5014020;28;20045;-75
2023/06/22 01:16:05;;;;;;;12.10;9.07;;;18.20;99.90;;;;;;5035207;28;20394;-75
2023/06/22 01:18:36;;;;;;;11.40;9.38;;;18.10;99.90;;;;;;5032938;28;20085;-76
2023/06/22 01:21:07;;;;;;;7.63;6.45;;;18.10;99.90;;;;;;5024486;28;20046;-75
2023/06/22 01:23:53;;;;;;;6.32;5.60;;;18.10;99.90;;;;;;5025076;28;20053;-75
2023/06/22 01:26:27;;;;;;;7.70;5.70;;;18.10;99.90;;;;;;5020852;28;20033;-75
2023/06/22 01:28:55;;;;;;;5.93;4.00;;;18.10;99.90;;;;;;5022428;28;20066;-75
2023/06/22 01:31:24;;;;;;;4.20;2.80;;;18.00;99.90;;;;;;5021764;28;20182;-75
2023/06/22 01:33:59;;;;;;;3.67;2.38;;;18.00;99.90;;;;;;5030644;28;20094;-75
2023/06/22 01:36:26;;;;;;;4.57;3.92;;;17.90;99.90;;;;;;5025730;28;20125;-74
2023/06/22 01:38:52;;;;;;;6.78;5.75;;;17.90;99.90;;;;;;5020759;28;20069;-75
2023/06/22 01:41:20;;;;;;;6.32;5.72;;;17.70;99.90;;;;;;5023764;28;20037;-74
2023/06/22 01:43:46;;;;;;;6.60;5.97;;;17.50;99.90;;;;;;5037815;28;20038;-75
2023/06/22 01:46:12;;;;;;;6.65;5.55;;;17.40;99.90;;;;;;5024816;28;20113;-75
2023/06/22 01:48:39;;;;;;;8.20;6.75;;;17.40;99.90;;;;;;5030917;28;20139;-75
2023/06/22 01:51:05;;;;;;;5.25;4.75;;;17.40;99.90;;;;;;5024658;28;20038;-74
2023/06/22 01:53:31;;;;;;;5.93;5.00;;;17.40;99.90;;;;;;5018888;28;20049;-75
2023/06/22 01:55:58;;;;;;;5.72;4.68;;;17.40;99.90;;;;;;5017500;28;20421;-75
2023/06/22 01:58:28;;;;;;;5.53;4.70;;;17.40;99.90;;;;;;5044399;28;20037;-75
2023/06/22 02:01:11;;;;;;;9.77;5.78;;;17.40;99.90;;;;;;5025443;28;20088;-75
2023/06/22 02:03:44;;;;;;;23.17;7.22;;;17.40;99.90;;;;;;5019147;28;20425;-75
2023/06/22 02:06:27;;;;;;;7.53;6.05;;;17.40;99.90;;;;;;5039531;28;20576;-75
2023/06/22 02:09:00;;;;;;;8.02;6.10;;;17.30;99.90;;;;;;5016536;28;20461;-75
2023/06/22 02:11:27;;;;;;;8.65;6.60;;;17.30;99.90;;;;;;5036349;28;20704;-75
2023/06/22 02:13:53;;;;;;;8.45;7.28;;;17.30;99.90;;;;;;5018429;28;20033;-74
2023/06/22 02:16:19;;;;;;;7.13;6.00;;;17.30;99.90;;;;;;5020728;28;20038;-75
2023/06/22 02:18:52;;;;;;;5.40;5.00;;;17.30;99.90;;;;;;5015280;28;20147;-74
2023/06/22 02:21:18;;;;;;;6.20;5.60;;;17.30;99.90;;;;;;5021700;28;20029;-75
2023/06/22 02:23:44;;;;;;;6.90;6.25;;;17.30;99.90;;;;;;5020998;28;20064;-75
2023/06/22 02:26:10;;;;;;;8.90;6.72;;;17.30;99.90;;;;;;5018978;28;20460;-75
2023/06/22 02:28:35;;;;;;;7.93;7.13;;;17.30;99.90;;;;;;5027946;28;20055;-75
2023/06/22 02:31:01;;;;;;;6.88;6.18;;;17.20;99.90;;;;;;5037757;28;20037;-75
2023/06/22 02:33:27;;;;;;;7.28;6.55;;;17.20;99.90;;;;;;5029989;28;20041;-75
2023/06/22 02:35:53;;;;;;;9.98;7.60;;;17.10;99.90;;;;;;5018334;28;20915;-75
2023/06/22 02:38:19;;;;;;;8.02;7.22;;;17.10;99.90;;;;;;5025361;28;20076;-75
2023/06/22 02:40:45;;;;;;;7.93;7.13;;;17.10;99.90;;;;;;5036482;28;20029;-75
2023/06/22 02:43:11;;;;;;;8.65;7.60;;;17.00;99.90;;;;;;5017971;28;20030;-75
2023/06/22 02:45:36;;;;;;;8.73;7.82;;;16.90;99.90;;;;;;5021182;28;20148;-75
2023/06/22 02:48:02;;;;;;;12.38;10.50;;;16.90;99.90;;;;;;5016306;28;20555;-75
2023/06/22 02:50:28;;;;;;;9.93;8.93;;;16.90;99.90;;;;;;5023220;28;20060;-74
2023/06/22 02:52:53;;;;;;;10.85;9.75;;;16.90;99.90;;;;;;5014587;28;20060;-75
2023/06/22 02:55:19;;;;;;;12.25;10.95;;;16.90;99.90;;;;;;5021789;28;20060;-74
2023/06/22 02:57:46;;;;;;;15.68;12.00;;;16.80;99.90;;;;;;5018670;28;20057;-75
2023/06/22 03:00:17;;;;;;;11.18;10.05;;;16.70;99.90;;;;;;5018188;28;20037;-75
2023/06/22 03:02:47;;;;;;;12.35;10.35;;;16.70;99.90;;;;;;5020396;28;20033;-75
2023/06/22 03:05:13;;;;;;;13.00;10.43;;;16.70;99.90;;;;;;5022007;28;20038;-74
2023/06/22 03:07:43;;;;;;;12.25;10.70;;;16.80;99.90;;;;;;5026421;28;20048;-75
2023/06/22 03:10:09;;;;;;;13.48;12.07;;;16.90;99.90;;;;;;5018146;28;20052;-75
2023/06/22 03:12:35;;;;;;;12.68;10.60;;;17.00;99.90;;;;;;5023278;28;20045;-74
2023/06/22 03:15:01;;;;;;;13.43;9.93;;;16.90;99.90;;;;;;5021858;28;20080;-75
2023/06/22 03:17:27;;;;;;;11.32;10.13;;;16.80;99.90;;;;;;5036968;28;20061;-75
2023/06/22 03:19:52;;;;;;;11.05;9.85;;;16.80;99.90;;;;;;5021547;28;20037;-75
2023/06/22 03:22:18;;;;;;;11.10;9.90;;;16.60;99.90;;;;;;5020708;28;20405;-75
2023/06/22 03:24:43;;;;;;;12.13;10.82;;;16.60;99.90;;;;;;5036562;28;20692;-75
2023/06/22 03:27:09;;;;;;;13.60;11.10;;;16.60;99.90;;;;;;5016229;28;20547;-75
2023/06/22 03:29:34;;;;;;;12.20;10.95;;;16.70;99.90;;;;;;5018652;28;20049;-75
2023/06/22 03:32:00;;;;;;;10.88;9.77;;;16.60;99.90;;;;;;5014182;28;20088;-74
2023/06/22 03:34:25;;;;;;;10.98;9.88;;;16.70;99.90;;;;;;5017790;28;20500;-74
2023/06/22 03:36:51;;;;;;;10.65;9.30;;;16.70;99.90;;;;;;5021768;28;20421;-75
2023/06/22 03:39:16;;;;;;;8.25;7.53;;;16.70;99.90;;;;;;5018746;28;20040;-74
2023/06/22 03:41:42;;;;;;;8.52;7.72;;;16.70;99.90;;;;;;5019719;28;20037;-74
2023/06/22 03:44:12;;;;;;;9.43;8.52;;;16.60;99.90;;;;;;5017517;28;20037;-74
2023/06/22 03:46:37;;;;;;;6.75;6.07;;;16.60;99.90;;;;;;5018947;28;20517;-75
2023/06/22 03:49:03;;;;;;;9.02;8.23;;;16.60;99.90;;;;;;5016835;28;20069;-74
2023/06/22 03:51:29;;;;;;;10.40;7.75;;;16.50;99.90;;;;;;5034681;28;20038;-75
2023/06/22 03:53:54;;;;;;;7.60;6.90;;;16.50;99.90;;;;;;5035750;28;20092;-74
2023/06/22 03:56:20;;;;;;;6.68;6.07;;;16.50;99.90;;;;;;5021190;28;20069;-75
2023/06/22 03:58:46;;;;;;;6.30;5.70;;;16.50;99.90;;;;;;5019044;28;20046;-74
2023/06/22 04:01:11;;;;;;;7.60;6.60;;;16.60;99.90;;;;;;5034073;28;20520;-74
2023/06/22 04:03:38;;;;;;;7.75;6.93;;;16.70;99.90;;;;;;5034419;28;20048;-74
2023/06/22 04:06:03;;;;;;;11.05;7.53;;;16.60;99.90;;;;;;5025226;28;20120;-75
2023/06/22 04:08:29;;;;;;;27.65;7.93;;;16.70;99.90;;;;;;5020127;28;20148;-75
2023/06/22 04:10:55;;;;;;;97.28;12.32;;;16.80;99.90;;;;;;5021817;28;20073;-74
2023/06/22 04:13:21;;;;;;;32.03;8.75;;;16.80;99.90;;;;;;5017647;28;20042;-74
2023/06/22 04:15:46;;;;;;;16.73;9.43;;;16.80;99.90;;;;;;5016209;28;20046;-75
2023/06/22 04:18:13;;;;;;;19.60;9.25;;;16.70;99.90;;;;;;5018890;28;20037;-74
2023/06/22 04:20:39;;;;;;;17.00;9.55;;;16.80;99.90;;;;;;5016046;28;20470;-74
2023/06/22 04:23:04;;;;;;;9.48;8.57;;;16.80;99.90;;;;;;5020666;28;20081;-75
2023/06/22 04:25:30;;;;;;;10.60;9.60;;;16.80;99.90;;;;;;5020859;28;20046;-74
2023/06/22 04:27:56;;;;;;;10.02;9.02;;;16.80;99.90;;;;;;5020339;28;20045;-74
2023/06/22 04:30:21;;;;;;;10.27;9.27;;;16.80;99.90;;;;;;5020201;28;20038;-74
2023/06/22 04:32:56;;;;;;;9.45;8.52;;;16.80;99.90;;;;;;5027066;28;20053;-74
2023/06/22 04:35:25;;;;;;;10.50;9.50;;;16.80;99.90;;;;;;5032571;28;20046;-74
2023/06/22 04:37:54;;;;;;;11.23;10.18;;;16.80;99.90;;;;;;5020593;28;20033;-74
2023/06/22 04:40:21;;;;;;;11.23;10.13;;;16.90;99.90;;;;;;5016438;28;20406;-75
2023/06/22 04:42:52;;;;;;;12.55;11.25;;;16.80;99.90;;;;;;5020828;28;20038;-74
2023/06/22 04:45:18;;;;;;;12.73;11.55;;;16.80;99.90;;;;;;5021401;28;20436;-74
2023/06/22 04:47:45;;;;;;;14.18;12.40;;;16.90;99.90;;;;;;5020018;28;20104;-74
2023/06/22 04:50:11;;;;;;;11.82;10.65;;;17.10;99.90;;;;;;5026467;28;20413;-74
2023/06/22 04:52:37;;;;;;;12.85;11.55;;;17.20;99.90;;;;;;5033350;28;20128;-74
2023/06/22 04:55:03;;;;;;;12.32;11.13;;;17.30;99.90;;;;;;5040309;28;20476;-74
2023/06/22 04:57:32;;;;;;;14.15;11.73;;;17.50;99.90;;;;;;5025225;28;20041;-74
2023/06/22 05:00:11;;;;;;;14.32;12.25;;;17.60;99.90;;;;;;5027476;28;20030;-74
2023/06/22 05:02:37;;;;;;;14.05;12.55;;;17.70;99.90;;;;;;5021917;28;20388;-74
2023/06/22 05:05:06;;;;;;;16.17;14.05;;;17.90;99.90;;;;;;5025862;28;20153;-75
2023/06/22 05:07:33;;;;;;;17.55;15.38;;;18.00;99.90;;;;;;5028292;28;20049;-75
2023/06/22 05:09:58;;;;;;;18.42;16.45;;;18.10;99.90;;;;;;5022474;28;20041;-74
2023/06/22 05:12:24;;;;;;;21.13;17.15;;;18.20;99.90;;;;;;5026119;28;20379;-75
2023/06/22 05:14:49;;;;;;;19.73;17.33;;;18.40;99.90;;;;;;5023296;28;20048;-75
2023/06/22 05:17:18;;;;;;;19.83;17.73;;;18.40;99.90;;;;;;5019156;28;20065;-75
2023/06/22 05:19:48;;;;;;;24.70;19.48;;;18.60;99.90;;;;;;5038622;28;20086;-74
2023/06/22 05:22:16;;;;;;;25.58;20.08;;;18.70;99.90;;;;;;5021422;28;20034;-74
2023/06/22 05:24:42;;;;;;;21.85;18.73;;;18.80;99.90;;;;;;5024870;28;20037;-74
2023/06/22 05:27:08;;;;;;;23.80;19.13;;;18.90;99.90;;;;;;5023254;28;20035;-74
2023/06/22 05:29:35;;;;;;;25.27;20.17;;;18.90;99.90;;;;;;5023784;28;20049;-74
2023/06/22 05:32:00;;;;;;;24.63;21.20;;;19.10;99.90;;;;;;5019219;28;20444;-74
2023/06/22 05:34:26;;;;;;;25.40;20.88;;;19.20;99.90;;;;;;5027016;28;20041;-74
2023/06/22 05:36:52;;;;;;;24.10;20.05;;;19.30;99.90;;;;;;5020684;28;20050;-75
2023/06/22 05:39:17;;;;;;;24.67;20.08;;;19.40;99.90;;;;;;5023516;28;20038;-74
2023/06/22 05:41:45;;;;;;;25.80;22.20;;;19.50;99.90;;;;;;5025728;28;20041;-75
2023/06/22 05:44:11;;;;;;;25.77;21.20;;;19.50;99.90;;;;;;5020771;28;20555;-75
2023/06/22 05:46:37;;;;;;;26.40;21.95;;;19.70;99.90;;;;;;5031046;28;20132;-75
2023/06/22 05:49:02;;;;;;;31.10;23.27;;;19.80;99.90;;;;;;5023888;28;20077;-75
2023/06/22 05:51:28;;;;;;;31.20;22.58;;;19.80;99.90;;;;;;5030787;28;20042;-75
2023/06/22 05:53:53;;;;;;;26.35;22.33;;;19.90;99.90;;;;;;5025104;28;20087;-77
2023/06/22 05:56:19;;;;;;;24.23;20.95;;;20.00;99.90;;;;;;5028520;28;20083;-75
2023/06/22 05:58:45;;;;;;;23.65;20.92;;;20.00;99.90;;;;;;5022509;28;20053;-76
2023/06/22 06:01:11;;;;;;;22.85;20.33;;;20.00;99.90;;;;;;5029742;28;20046;-75
2023/06/22 06:03:40;;;;;;;21.45;18.88;;;20.20;99.90;;;;;;5027515;28;20053;-74
2023/06/22 06:06:07;;;;;;;19.83;17.70;;;20.20;99.90;;;;;;5025595;28;20037;-75
2023/06/22 06:08:32;;;;;;;22.13;18.10;;;20.30;99.90;;;;;;5030031;28;20095;-75
2023/06/22 06:10:58;;;;;;;20.75;17.73;;;20.40;99.90;;;;;;5031328;28;20065;-75
2023/06/22 06:13:23;;;;;;;21.77;18.67;;;20.40;99.90;;;;;;5031364;28;20033;-75
2023/06/22 06:15:51;;;;;;;21.77;18.67;;;20.60;99.90;;;;;;5030218;28;20540;-75
2023/06/22 06:18:17;;;;;;;20.58;18.38;;;20.80;99.90;;;;;;5031444;28;20115;-76
2023/06/22 06:20:42;;;;;;;22.13;18.42;;;20.90;99.90;;;;;;5031158;28;20038;-76
2023/06/22 06:23:09;;;;;;;21.15;17.40;;;21.00;99.90;;;;;;5030963;28;20112;-76
2023/06/22 06:25:34;;;;;;;21.75;16.75;;;21.10;99.90;;;;;;5031155;28;20121;-75
2023/06/22 06:28:00;;;;;;;19.95;17.25;;;21.10;99.90;;;;;;5027488;28;20063;-76
2023/06/22 06:30:25;;;;;;;21.25;17.02;;;21.20;99.90;;;;;;5000953;28;20060;-76
2023/06/22 06:32:51;;;;;;;19.45;17.35;;;21.20;99.90;;;;;;5027301;28;20033;-76
2023/06/22 06:35:17;;;;;;;19.55;16.45;;;21.30;99.90;;;;;;5014083;28;20033;-76
2023/06/22 06:37:45;;;;;;;16.42;13.27;;;21.40;99.90;;;;;;5030208;28;20451;-76
2023/06/22 06:40:12;;;;;;;17.55;14.90;;;21.50;99.90;;;;;;5030200;28;20413;-76
2023/06/22 06:42:40;;;;;;;18.75;15.30;;;21.70;99.90;;;;;;5029888;28;20527;-76
2023/06/22 06:45:07;;;;;;;19.00;15.18;;;21.80;99.90;;;;;;5030989;28;20034;-76
2023/06/22 06:47:32;;;;;;;17.98;16.02;;;21.90;99.90;;;;;;5030959;28;20038;-76
2023/06/22 06:49:58;;;;;;;16.38;14.63;;;22.00;99.90;;;;;;5026841;28;20038;-76
2023/06/22 06:52:23;;;;;;;15.88;13.38;;;22.10;99.90;;;;;;5024716;28;20041;-76
2023/06/22 06:54:51;;;;;;;14.68;12.82;;;22.10;99.90;;;;;;5027976;28;20045;-77
2023/06/22 06:57:17;;;;;;;13.23;11.52;;;22.30;99.90;;;;;;5021599;28;20451;-77
2023/06/22 06:59:42;;;;;;;13.88;11.98;;;22.30;99.90;;;;;;5021551;28;20056;-76
2023/06/22 07:02:08;;;;;;;13.18;10.25;;;22.30;99.90;;;;;;5021027;28;20068;-77
2023/06/22 07:04:33;;;;;;;12.98;10.52;;;22.30;99.90;;;;;;5024388;28;20065;-77
2023/06/22 07:07:01;;;;;;;12.27;9.80;;;22.30;99.90;;;;;;5026247;28;20144;-77
2023/06/22 07:09:27;;;;;;;12.80;10.07;;;22.40;99.90;;;;;;5028905;28;20033;-78
2023/06/22 07:11:52;;;;;;;11.18;9.77;;;22.50;99.90;;;;;;5030221;28;20416;-76
2023/06/22 07:14:18;;;;;;;11.60;10.30;;;22.80;99.90;;;;;;5023014;28;20088;-77
2023/06/22 07:16:43;;;;;;;13.05;9.75;;;22.90;99.90;;;;;;5025722;28;20049;-77
2023/06/22 07:19:12;;;;;;;11.18;9.30;;;23.00;99.90;;;;;;5041217;28;20513;-77
2023/06/22 07:21:39;;;;;;;11.15;9.73;;;23.20;99.90;;;;;;5037393;28;20386;-77
2023/06/22 07:24:05;;;;;;;11.05;9.65;;;23.30;99.90;;;;;;5030257;28;20049;-77
2023/06/22 07:26:31;;;;;;;10.73;9.32;;;23.30;99.90;;;;;;5030139;28;20045;-77
2023/06/22 07:28:57;;;;;;;8.60;7.50;;;23.30;99.90;;;;;;5027536;28;20773;-77
2023/06/22 07:31:24;;;;;;;10.80;7.95;;;23.40;99.90;;;;;;5046181;28;20049;-77
2023/06/22 07:33:50;;;;;;;10.07;8.20;;;23.40;99.90;;;;;;5028775;28;20117;-77
2023/06/22 07:36:17;;;;;;;8.55;7.53;;;23.30;99.90;;;;;;5020119;28;20171;-77
2023/06/22 07:38:43;;;;;;;10.43;8.05;;;23.40;99.90;;;;;;5021655;28;20045;-76
2023/06/22 07:41:08;;;;;;;9.13;7.28;;;23.40;99.90;;;;;;5015400;28;20037;-78
2023/06/22 07:43:36;;;;;;;8.80;7.38;;;23.40;99.90;;;;;;5020814;28;20107;-79
2023/06/22 07:46:06;;;;;;;8.02;7.07;;;23.40;99.90;;;;;;5010370;28;20038;-77
2023/06/22 07:48:31;;;;;;;8.43;6.68;;;23.50;99.90;;;;;;5025523;28;20428;-77
2023/06/22 07:50:57;;;;;;;7.90;6.80;;;23.60;99.90;;;;;;5023812;28;20034;-78
2023/06/22 07:53:23;;;;;;;9.57;7.30;;;23.70;99.90;;;;;;5032154;28;20113;-78
2023/06/22 07:55:49;;;;;;;9.23;7.60;;;23.80;99.90;;;;;;5025748;28;20448;-77
2023/06/22 07:58:15;;;;;;;9.95;7.47;;;23.80;99.90;;;;;;5020445;28;20038;-77
2023/06/22 08:00:41;;;;;;;9.60;6.78;;;24.00;99.90;;;;;;5024341;28;20037;-77
2023/06/22 08:03:07;;;;;;;11.05;7.13;;;24.10;99.90;;;;;;5028304;28;20520;-77
2023/06/22 08:05:32;;;;;;;8.38;7.45;;;24.20;99.90;;;;;;5045966;28;20038;-76
2023/06/22 08:07:58;;;;;;;9.77;6.38;;;24.20;99.90;;;;;;5029516;28;20043;-77
2023/06/22 08:10:24;;;;;;;8.70;7.63;;;24.30;99.90;;;;;;5029329;28;20489;-77
2023/06/22 08:12:49;;;;;;;8.80;7.32;;;24.30;99.90;;;;;;5025189;28;20073;-77
2023/06/22 08:15:15;;;;;;;8.43;7.15;;;24.40;99.90;;;;;;5017182;28;20095;-77
2023/06/22 08:17:40;;;;;;;8.43;6.75;;;24.50;99.90;;;;;;5019126;28;20037;-77
2023/06/22 08:20:13;;;;;;;8.43;7.28;;;24.60;99.90;;;;;;5014723;28;20044;-78
2023/06/22 08:22:42;;;;;;;8.38;6.80;;;24.60;99.90;;;;;;5025973;28;20033;-77
2023/06/22 08:25:09;;;;;;;10.07;7.45;;;24.70;99.90;;;;;;5019785;28;20591;-78
2023/06/22 08:27:35;;;;;;;10.10;6.28;;;24.80;99.90;;;;;;5027816;28;20045;-77
2023/06/22 08:30:01;;;;;;;9.25;7.55;;;24.90;99.90;;;;;;5036961;28;20037;-77
2023/06/22 08:32:32;;;;;;;10.30;7.15;;;25.00;99.90;;;;;;5028516;28;20120;-77
2023/06/22 08:34:58;;;;;;;8.57;6.82;;;25.00;99.90;;;;;;5031660;28;20125;-77
2023/06/22 08:37:30;;;;;;;10.68;6.32;;;25.00;99.90;;;;;;5040872;28;20557;-77
2023/06/22 08:40:05;;;;;;;9.85;6.70;;;25.10;99.90;;;;;;5034442;28;20115;-77
2023/06/22 08:42:31;;;;;;;9.82;7.03;;;25.00;99.90;;;;;;5033965;28;20041;-78
2023/06/22 08:44:57;;;;;;;7.95;5.97;;;25.10;99.90;;;;;;5025774;28;20120;-77
2023/06/22 08:47:22;;;;;;;7.97;6.40;;;25.10;99.90;;;;;;5027405;28;20042;-77
2023/06/22 08:49:48;;;;;;;10.38;7.25;;;25.20;99.90;;;;;;5025001;28;20041;-77
2023/06/22 08:52:14;;;;;;;7.95;6.97;;;25.30;99.90;;;;;;5045971;28;20045;-76
2023/06/22 08:54:39;;;;;;;10.63;7.07;;;25.30;99.90;;;;;;5033351;28;20049;-77
2023/06/22 08:57:05;;;;;;;10.60;6.90;;;25.30;99.90;;;;;;5030931;28;20045;-77
2023/06/22 08:59:31;;;;;;;8.65;7.07;;;25.30;99.90;;;;;;5042913;28;20041;-76
2023/06/22 09:01:56;;;;;;;7.88;6.20;;;25.40;99.90;;;;;;5033061;28;20034;-78
2023/06/22 09:04:22;;;;;;;13.48;6.10;;;25.40;99.90;;;;;;5026976;28;20381;-78
2023/06/22 09:06:52;;;;;;;8.80;6.85;;;25.40;99.90;;;;;;5020833;28;20075;-77
2023/06/22 09:09:18;;;;;;;10.52;7.43;;;25.50;99.90;;;;;;5050463;28;20404;-78
2023/06/22 09:11:43;;;;;;;8.32;7.07;;;25.50;99.90;;;;;;5035678;28;20281;-79
2023/06/22 09:14:11;;;;;;;6.90;5.95;;;25.50;99.90;;;;;;5051351;28;20041;-77
2023/06/22 09:16:36;;;;;;;6.45;5.72;;;25.50;99.90;;;;;;5019658;28;20033;-77
2023/06/22 09:19:02;;;;;;;7.93;6.03;;;25.60;99.90;;;;;;5006146;28;20038;-78
2023/06/22 09:21:28;;;;;;;7.95;6.45;;;25.60;99.90;;;;;;5023452;28;20033;-77
2023/06/22 09:23:53;;;;;;;7.72;6.07;;;25.60;99.90;;;;;;5022399;28;20095;-78
2023/06/22 09:26:19;;;;;;;8.13;5.95;;;25.60;99.90;;;;;;5025786;28;20033;-78
2023/06/22 09:28:45;;;;;;;7.45;6.35;;;25.60;99.90;;;;;;5035254;28;20037;-77
2023/06/22 09:31:11;;;;;;;9.63;6.43;;;25.50;99.90;;;;;;5034246;28;20084;-78
2023/06/22 09:33:40;;;;;;;7.82;6.25;;;25.60;99.90;;;;;;5029603;28;20038;-78
2023/06/22 09:36:07;;;;;;;8.63;6.25;;;25.60;99.90;;;;;;5027565;28;20102;-77
2023/06/22 09:38:36;;;;;;;7.95;6.38;;;25.80;99.90;;;;;;5028448;28;20045;-76
2023/06/22 09:41:01;;;;;;;6.95;6.05;;;25.80;99.90;;;;;;5023267;28;20030;-77
2023/06/22 09:43:27;;;;;;;8.63;5.95;;;25.90;99.90;;;;;;5041028;28;20398;-77
2023/06/22 09:45:53;;;;;;;8.27;6.32;;;26.00;99.90;;;;;;5020809;28;20041;-77
2023/06/22 09:48:18;;;;;;;7.00;6.10;;;26.10;99.90;;;;;;5037278;28;20043;-78
2023/06/22 09:50:44;;;;;;;7.30;5.57;;;26.10;99.90;;;;;;5043856;28;20525;-76
2023/06/22 09:53:09;;;;;;;7.28;5.00;;;26.20;99.90;;;;;;5027134;28;20043;-76
2023/06/22 09:55:35;;;;;;;7.45;5.70;;;26.30;99.90;;;;;;5038448;28;20132;-76
2023/06/22 09:58:01;;;;;;;10.40;6.43;;;26.40;99.90;;;;;;5035462;28;20427;-76
2023/06/22 10:00:26;;;;;;;7.03;6.13;;;26.50;99.90;;;;;;5022014;28;20041;-76
2023/06/22 10:02:52;;;;;;;7.20;5.78;;;26.60;99.90;;;;;;5033727;28;20540;-77
2023/06/22 10:05:17;;;;;;;6.28;5.53;;;26.60;99.90;;;;;;5026550;28;20386;-77
2023/06/22 10:07:43;;;;;;;6.88;5.38;;;26.60;99.90;;;;;;5045946;28;20125;-77
2023/06/22 10:10:10;;;;;;;13.02;6.15;;;26.70;99.90;;;;;;5020196;28;20038;-76
2023/06/22 10:12:36;;;;;;;7.47;6.43;;;26.80;99.90;;;;;;5019249;28;20081;-77
2023/06/22 10:15:02;;;;;;;7.03;5.10;;;26.80;99.90;;;;;;5040826;28;20116;-77
2023/06/22 10:17:28;;;;;;;8.23;5.20;;;26.80;99.90;;;;;;5030846;28;20043;-78
2023/06/22 10:19:53;;;;;;;8.07;5.22;;;26.80;99.90;;;;;;5018815;28;20042;-76
2023/06/22 10:22:19;;;;;;;6.82;5.15;;;26.90;99.90;;;;;;5024350;28;20124;-77
2023/06/22 10:24:45;;;;;;;8.80;5.63;;;27.00;99.90;;;;;;5025279;28;20038;-77
2023/06/22 10:27:11;;;;;;;10.93;5.05;;;27.10;99.90;;;;;;5035127;28;20047;-76
2023/06/22 10:29:37;;;;;;;9.10;6.32;;;27.20;99.90;;;;;;5020092;28;20404;-77
2023/06/22 10:32:03;;;;;;;6.35;5.50;;;27.20;99.90;;;;;;5018170;28;20038;-76
2023/06/22 10:34:28;;;;;;;6.07;5.07;;;27.20;99.90;;;;;;5019341;28;20103;-76
2023/06/22 10:36:54;;;;;;;12.32;6.25;;;27.30;99.90;;;;;;5024717;28;20077;-75
2023/06/22 10:39:20;;;;;;;7.55;6.03;;;27.20;99.90;;;;;;5020399;28;20040;-75
2023/06/22 10:41:45;;;;;;;7.80;6.15;;;27.20;99.90;;;;;;5017780;28;20083;-76
2023/06/22 10:44:12;;;;;;;7.40;5.80;;;27.40;99.90;;;;;;5025608;28;20037;-76
2023/06/22 10:46:37;;;;;;;7.55;5.78;;;27.50;99.90;;;;;;5029465;28;20385;-76
2023/06/22 10:49:03;;;;;;;6.97;5.82;;;27.60;99.90;;;;;;5019297;28;20041;-77
2023/06/22 10:51:29;;;;;;;7.75;6.00;;;27.60;99.90;;;;;;5025096;28;20050;-76
2023/06/22 10:53:54;;;;;;;10.60;6.30;;;27.60;99.90;;;;;;5018720;28;20037;-76
2023/06/22 10:56:20;;;;;;;6.28;5.50;;;27.70;99.90;;;;;;5046604;28;20044;-77
2023/06/22 10:58:46;;;;;;;6.35;5.13;;;27.80;99.90;;;;;;5024079;28;20640;-77
2023/06/22 11:01:11;;;;;;;8.60;6.40;;;27.90;99.90;;;;;;5031356;28;20038;-77
2023/06/22 11:03:37;;;;;;;8.32;6.03;;;27.80;99.90;;;;;;5027420;28;20049;-77
2023/06/22 11:06:03;;;;;;;7.18;5.40;;;27.90;99.90;;;;;;5047467;28;20026;-76
2023/06/22 11:08:28;;;;;;;6.07;5.30;;;28.00;99.90;;;;;;5030736;28;20050;-77
2023/06/22 11:10:54;;;;;;;8.88;5.70;;;28.20;99.90;;;;;;5019477;28;20051;-77
2023/06/22 11:13:19;;;;;;;9.55;6.72;;;28.30;99.90;;;;;;5015676;28;20042;-76
2023/06/22 11:15:45;;;;;;;8.27;6.50;;;28.40;99.90;;;;;;5023380;28;20052;-77
2023/06/22 11:18:10;;;;;;;8.10;5.72;;;28.50;99.90;;;;;;5026415;28;20038;-76
2023/06/22 11:20:38;;;;;;;9.00;6.55;;;28.50;99.90;;;;;;5041711;28;20038;-76
2023/06/22 11:23:05;;;;;;;7.22;5.40;;;28.30;99.90;;;;;;5026828;28;20064;-75
2023/06/22 11:25:31;;;;;;;8.45;5.43;;;28.30;99.90;;;;;;5043316;28;20041;-75
2023/06/22 11:27:57;;;;;;;6.13;4.75;;;28.20;99.90;;;;;;5024534;28;20120;-76
2023/06/22 11:30:23;;;;;;;5.57;4.97;;;28.30;99.90;;;;;;5021893;28;20041;-76
2023/06/22 11:32:48;;;;;;;7.10;5.45;;;28.50;99.90;;;;;;5036501;28;20091;-76
2023/06/22 11:35:14;;;;;;;7.72;6.03;;;28.70;99.90;;;;;;5023050;28;20041;-77
2023/06/22 11:37:39;;;;;;;7.20;5.60;;;28.60;99.90;;;;;;5038933;28;20065;-75
2023/06/22 11:40:08;;;;;;;6.03;4.70;;;28.60;99.90;;;;;;5023524;28;20091;-75
2023/06/22 11:42:34;;;;;;;5.00;4.50;;;28.60;99.90;;;;;;5020845;28;20559;-76
2023/06/22 11:45:00;;;;;;;7.03;5.50;;;28.70;99.90;;;;;;5025849;28;20033;-76
2023/06/22 11:47:25;;;;;;;7.47;5.50;;;28.60;99.90;;;;;;4998380;28;20053;-76
2023/06/22 11:49:51;;;;;;;6.25;4.95;;;28.60;99.90;;;;;;5021185;28;20095;-76
2023/06/22 11:52:17;;;;;;;7.57;4.55;;;28.60;99.90;;;;;;5020059;28;20128;-76
2023/06/22 11:54:43;;;;;;;6.53;4.82;;;28.60;99.90;;;;;;5033977;28;20080;-76
2023/06/22 11:57:09;;;;;;;6.75;4.78;;;28.40;99.90;;;;;;5023629;28;20140;-76
2023/06/22 11:59:34;;;;;;;5.93;4.63;;;28.40;99.90;;;;;;5023960;28;20041;-76
2023/06/22 12:02:00;;;;;;;5.10;4.60;;;28.40;99.90;;;;;;5013348;28;20652;-76
2023/06/22 12:04:25;;;;;;;6.40;4.95;;;28.40;99.90;;;;;;5029273;28;20072;-76
2023/06/22 12:06:51;;;;;;;4.65;4.00;;;28.50;99.90;;;;;;5028378;28;20091;-76
2023/06/22 12:09:16;;;;;;;5.47;4.10;;;28.60;99.90;;;;;;5019721;28;20096;-76
2023/06/22 12:11:42;;;;;;;6.60;4.90;;;28.70;99.90;;;;;;5035044;28;20082;-75
2023/06/22 12:14:07;;;;;;;6.63;5.25;;;28.70;99.90;;;;;;5016432;28;20030;-76
2023/06/22 12:16:33;;;;;;;7.57;5.72;;;28.60;99.90;;;;;;5045832;28;20041;-76
2023/06/22 12:18:58;;;;;;;5.78;5.22;;;28.50;99.90;;;;;;5038404;28;20116;-77
2023/06/22 12:21:24;;;;;;;5.40;4.82;;;28.40;99.90;;;;;;5021019;28;20044;-75
2023/06/22 12:23:49;;;;;;;7.25;4.95;;;28.30;99.90;;;;;;5020608;28;20037;-77
2023/06/22 12:26:15;;;;;;;5.47;4.75;;;28.20;99.90;;;;;;5046146;28;20029;-77
2023/06/22 12:28:41;;;;;;;6.00;5.03;;;28.10;99.90;;;;;;5025158;28;20052;-77
2023/06/22 12:31:06;;;;;;;8.18;5.80;;;28.00;99.90;;;;;;5027830;28;20409;-78
2023/06/22 12:33:32;;;;;;;6.97;4.60;;;28.00;99.90;;;;;;5029096;28;20041;-77
2023/06/22 12:35:57;;;;;;;6.68;4.80;;;27.90;99.90;;;;;;5029435;28;20029;-77